Time;durP1;ratioP1;P1;durP2;ratioP2;P2;SDS_P1;SDS_P2;PMS_P1;PMS_P2;Temp;Humidity;BMP_temperature;BMP_pressure;BME280_temperature;BME280_humidity;BME280_pressure;Samples;Min_cycle;Max_cycle;Signal;HPM_P1;HPM_P2
2022/07/26 00:00:11;;;;;;;12.45;10.45;;;19.60;99.90;19.80;98013.00;;;;4993949;28;87945;-62
2022/07/26 00:02:39;;;;;;;11.18;10.07;;;19.50;99.90;19.80;98008.00;;;;5000619;28;87137;-62
2022/07/26 00:05:06;;;;;;;11.25;10.13;;;19.50;99.90;19.80;98014.00;;;;5003461;28;87494;-62
2022/07/26 00:07:33;;;;;;;11.23;10.15;;;19.50;99.90;19.80;98015.00;;;;4997665;28;89583;-62
2022/07/26 00:09:59;;;;;;;12.07;10.55;;;19.50;99.90;19.80;98017.00;;;;5018649;28;86970;-62
2022/07/26 00:12:25;;;;;;;14.88;10.90;;;19.50;99.90;19.80;98017.00;;;;5018644;28;87007;-62
2022/07/26 00:14:52;;;;;;;12.10;10.80;;;19.50;99.90;19.70;98014.00;;;;4994929;28;88581;-62
2022/07/26 00:17:18;;;;;;;11.80;10.43;;;19.50;99.90;19.70;98011.00;;;;5005571;28;87261;-62
2022/07/26 00:19:44;;;;;;;12.18;11.02;;;19.40;99.90;19.60;98007.00;;;;5009271;28;86958;-62
2022/07/26 00:24:55;;;;;;;12.70;11.18;;;19.40;99.90;19.60;98013.00;;;;5013258;28;89254;-62
2022/07/26 00:27:21;;;;;;;12.02;10.55;;;19.40;99.90;19.60;98010.00;;;;5014560;28;88224;-62
2022/07/26 00:29:47;;;;;;;11.65;10.40;;;19.40;99.90;19.60;98012.00;;;;5004972;28;87517;-62
2022/07/26 00:32:13;;;;;;;12.20;10.65;;;19.40;99.90;19.50;98004.00;;;;5010093;28;87130;-63
2022/07/26 00:34:40;;;;;;;11.88;10.13;;;19.30;99.90;19.40;98006.00;;;;5016436;28;87959;-63
2022/07/26 00:37:06;;;;;;;12.90;11.60;;;19.20;99.90;19.50;98015.00;;;;5012244;28;87631;-62
2022/07/26 00:39:32;;;;;;;13.52;12.15;;;19.20;99.90;19.50;98008.00;;;;5011384;28;87127;-63
2022/07/26 00:41:58;;;;;;;13.35;12.05;;;19.20;99.90;19.50;98003.00;;;;5008196;28;86324;-62
2022/07/26 00:44:24;;;;;;;13.85;11.98;;;19.30;99.90;19.50;98003.00;;;;4999703;28;87645;-62
2022/07/26 00:46:50;;;;;;;14.90;12.45;;;19.20;99.90;19.50;98006.00;;;;5007883;28;86991;-62
2022/07/26 00:49:16;;;;;;;14.18;12.77;;;19.20;99.90;19.40;98000.00;;;;5004970;28;88022;-62
2022/07/26 00:51:42;;;;;;;13.23;11.93;;;19.20;99.90;19.40;97985.00;;;;5012594;28;87755;-62
2022/07/26 00:54:08;;;;;;;14.45;12.43;;;19.20;99.90;19.40;97986.00;;;;5009911;28;87604;-62
2022/07/26 00:56:35;;;;;;;13.82;12.43;;;19.20;99.90;19.40;97998.00;;;;4987751;28;88422;-62
2022/07/26 00:59:01;;;;;;;14.20;12.45;;;19.20;99.90;19.40;97993.00;;;;4996734;28;87379;-62
2022/07/26 01:01:27;;;;;;;14.32;12.98;;;19.10;99.90;19.40;97989.00;;;;5016122;28;87323;-62
2022/07/26 01:03:54;;;;;;;15.10;13.75;;;19.10;99.90;19.40;97987.00;;;;5011993;28;87399;-62
2022/07/26 01:06:22;;;;;;;14.27;12.77;;;19.10;99.90;19.40;97995.00;;;;5016136;28;88512;-62
2022/07/26 01:08:50;;;;;;;14.77;12.93;;;19.10;99.90;19.30;97986.00;;;;4991963;28;88182;-62
2022/07/26 01:11:16;;;;;;;15.13;13.43;;;19.10;99.90;19.30;97989.00;;;;5005463;28;87042;-62
2022/07/26 01:13:49;;;;;;;15.05;13.60;;;19.10;99.90;19.30;97994.00;;;;4992688;28;88285;-62
2022/07/26 01:16:16;;;;;;;15.48;13.98;;;19.10;99.90;19.30;97988.00;;;;4996099;28;88225;-61
2022/07/26 01:18:43;;;;;;;15.27;13.75;;;19.10;99.90;19.30;97987.00;;;;5004500;28;87006;-61
2022/07/26 01:21:10;;;;;;;14.73;13.27;;;19.10;99.90;19.30;97985.00;;;;5015891;28;87423;-61
2022/07/26 01:23:37;;;;;;;15.35;13.85;;;19.10;99.90;19.20;97982.00;;;;5009667;28;87762;-61
2022/07/26 01:26:04;;;;;;;15.38;13.85;;;19.10;99.90;19.20;97985.00;;;;5007900;28;87540;-61
2022/07/26 01:28:36;;;;;;;15.15;13.40;;;19.00;99.90;19.20;97978.00;;;;5010766;28;87484;-61
2022/07/26 01:31:06;;;;;;;18.83;14.93;;;19.00;99.90;19.20;97983.00;;;;4985436;28;86791;-61
2022/07/26 01:33:34;;;;;;;16.38;14.75;;;19.00;99.90;19.20;97981.00;;;;5010952;28;88701;-61
2022/07/26 01:36:00;;;;;;;14.77;13.25;;;19.00;99.90;19.20;97978.00;;;;5010703;28;88284;-62
2022/07/26 01:38:27;;;;;;;15.13;13.70;;;19.00;99.90;19.10;97986.00;;;;5012057;28;87995;-61
2022/07/26 01:40:53;;;;;;;15.80;14.40;;;18.90;99.90;19.20;97991.00;;;;5008511;28;87382;-61
2022/07/26 01:43:19;;;;;;;18.40;13.85;;;18.90;99.90;19.10;97995.00;;;;5005827;28;87634;-61
2022/07/26 01:45:46;;;;;;;16.50;14.70;;;18.90;99.90;19.20;97999.00;;;;5009372;28;87690;-61
2022/07/26 01:48:12;;;;;;;14.40;12.68;;;19.00;99.90;19.20;98002.00;;;;5012869;28;86962;-61
2022/07/26 01:50:38;;;;;;;15.02;13.68;;;19.10;99.90;19.30;97996.00;;;;4988866;28;86981;-61
2022/07/26 01:53:04;;;;;;;14.77;13.27;;;19.10;99.90;19.30;97997.00;;;;5011991;28;87793;-61
2022/07/26 01:55:30;;;;;;;15.73;13.90;;;19.10;99.90;19.30;97989.00;;;;5017297;28;88330;-61
2022/07/26 01:57:57;;;;;;;14.93;13.43;;;19.10;99.90;19.30;98008.00;;;;5011345;28;87108;-61
2022/07/26 02:00:23;;;;;;;15.48;13.55;;;19.10;99.90;19.30;98009.00;;;;5004099;28;87013;-61
2022/07/26 02:02:49;;;;;;;13.57;12.27;;;19.10;99.90;19.30;98010.00;;;;4985126;28;88939;-62
2022/07/26 02:05:15;;;;;;;15.20;13.23;;;19.10;99.90;19.30;98010.00;;;;5013913;28;88232;-61
2022/07/26 02:07:42;;;;;;;14.68;13.18;;;19.10;99.90;19.30;98016.00;;;;5014042;28;87023;-61
2022/07/26 02:10:13;;;;;;;15.02;13.45;;;19.10;99.90;19.30;98009.00;;;;4994061;28;87356;-62
2022/07/26 02:12:39;;;;;;;17.17;13.50;;;19.10;99.90;19.30;98003.00;;;;5006832;28;88995;-61
2022/07/26 02:15:25;;;;;;;17.55;12.95;;;19.10;99.90;19.40;98010.00;;;;4999634;28;88299;-61
2022/07/26 02:17:51;;;;;;;13.65;12.25;;;19.10;99.90;19.40;98006.00;;;;5009836;28;97486;-61
2022/07/26 02:20:18;;;;;;;19.95;12.27;;;19.20;99.90;19.40;98008.00;;;;5006681;28;86968;-61
2022/07/26 02:22:44;;;;;;;13.32;12.13;;;19.20;99.90;19.50;98025.00;;;;5012620;28;87644;-62
2022/07/26 02:25:10;;;;;;;13.77;12.30;;;19.30;99.90;19.60;98012.00;;;;5012216;28;88430;-61
2022/07/26 02:27:36;;;;;;;10.82;9.52;;;19.40;99.90;20.00;98015.00;;;;5015207;28;89981;-61
2022/07/26 02:30:03;;;;;;;14.45;9.85;;;19.70;99.90;20.40;98022.00;;;;4983947;28;87087;-61
2022/07/26 02:32:30;;;;;;;10.25;9.07;;;20.10;99.90;21.00;98013.00;;;;4991941;28;90193;-61
2022/07/26 02:34:56;;;;;;;12.20;9.50;;;20.60;99.90;21.40;98024.00;;;;5012216;28;87866;-61
2022/07/26 02:37:22;;;;;;;13.15;9.73;;;21.00;99.90;21.60;98017.00;;;;5005793;28;87027;-61
2022/07/26 02:39:48;;;;;;;13.73;9.68;;;21.20;99.90;21.80;98007.00;;;;4987578;28;87408;-61
2022/07/26 02:42:14;;;;;;;10.55;9.43;;;21.40;99.90;21.70;98011.00;;;;4988063;28;87859;-61
2022/07/26 02:44:41;;;;;;;10.77;9.68;;;21.30;99.90;21.70;98013.00;;;;4989905;28;88414;-61
2022/07/26 02:47:07;;;;;;;14.80;10.65;;;21.30;99.90;21.80;98011.00;;;;5009134;28;87044;-61
2022/07/26 02:49:33;;;;;;;12.68;8.75;;;21.40;99.90;21.80;98016.00;;;;4993547;28;87115;-61
2022/07/26 02:51:59;;;;;;;14.02;9.88;;;21.30;99.90;21.80;98015.00;;;;5007321;28;88538;-61
2022/07/26 02:54:25;;;;;;;15.00;9.20;;;21.40;99.90;21.90;98018.00;;;;5012203;28;88011;-61
2022/07/26 02:56:51;;;;;;;13.35;9.75;;;21.40;99.90;21.90;98023.00;;;;5005633;28;86994;-61
2022/07/26 02:59:17;;;;;;;13.07;9.70;;;21.50;99.90;21.90;98025.00;;;;5010660;28;87037;-61
2022/07/26 03:01:43;;;;;;;11.88;10.25;;;21.50;99.90;21.70;98026.00;;;;5009925;28;89096;-61
2022/07/26 03:04:09;;;;;;;17.52;10.10;;;21.30;99.90;21.80;98030.00;;;;4986344;28;89425;-61
2022/07/26 03:06:36;;;;;;;10.68;9.57;;;21.40;99.90;22.00;98035.00;;;;5009224;28;87988;-61
2022/07/26 03:09:02;;;;;;;13.25;9.98;;;21.60;99.90;21.70;98048.00;;;;5012603;28;86271;-60
2022/07/26 03:11:29;;;;;;;13.23;10.43;;;21.40;99.90;21.60;98036.00;;;;5008512;28;88629;-61
2022/07/26 03:13:55;;;;;;;16.58;10.10;;;21.30;99.90;21.60;98050.00;;;;5005347;28;88418;-60
2022/07/26 03:16:21;;;;;;;12.52;9.88;;;21.30;99.90;21.80;98048.00;;;;5007706;28;88280;-61
2022/07/26 03:18:47;;;;;;;10.45;9.35;;;21.30;99.90;22.00;98040.00;;;;5012394;28;87272;-60
2022/07/26 03:21:13;;;;;;;10.75;9.13;;;21.60;99.90;22.20;98053.00;;;;5010431;28;87500;-61
2022/07/26 03:23:39;;;;;;;12.70;9.05;;;21.80;99.90;22.20;98051.00;;;;5007738;28;87067;-61
2022/07/26 03:26:05;;;;;;;10.63;9.18;;;21.80;99.90;22.50;98059.00;;;;5010867;28;86931;-61
2022/07/26 03:28:32;;;;;;;12.38;9.30;;;22.10;99.90;22.80;98061.00;;;;5005484;28;87174;-61
2022/07/26 03:30:59;;;;;;;16.45;9.43;;;22.40;99.90;23.00;98067.00;;;;5015409;28;88218;-61
2022/07/26 03:33:25;;;;;;;12.38;10.20;;;22.50;99.90;23.30;98057.00;;;;5012709;28;88496;-61
2022/07/26 03:35:51;;;;;;;15.02;9.85;;;22.80;99.90;23.50;98068.00;;;;5014165;28;87196;-62
2022/07/26 03:38:18;;;;;;;11.00;9.43;;;23.00;99.90;23.70;98071.00;;;;5009264;28;87301;-62
2022/07/26 03:40:44;;;;;;;12.32;9.40;;;23.20;99.90;24.10;98066.00;;;;5016199;28;88685;-62
2022/07/26 03:43:10;;;;;;;11.98;9.05;;;23.60;99.90;24.40;98074.00;;;;5004771;28;88231;-62
2022/07/26 03:45:36;;;;;;;11.13;9.43;;;23.90;99.90;24.10;98064.00;;;;5003588;28;87339;-62
2022/07/26 03:48:03;;;;;;;10.73;8.98;;;23.60;99.90;24.50;98062.00;;;;4986156;28;87133;-62
2022/07/26 03:50:29;;;;;;;11.15;8.95;;;24.00;99.90;24.90;98069.00;;;;5019859;28;87705;-62
2022/07/26 03:52:55;;;;;;;9.70;8.30;;;24.30;99.90;25.10;98068.00;;;;5011165;28;87450;-62
2022/07/26 03:58:06;;;;;;;10.35;9.20;;;24.50;99.90;24.90;98058.00;;;;5009099;28;86248;-62
2022/07/26 04:00:32;;;;;;;12.80;9.85;;;24.40;99.90;24.90;98058.00;;;;5009744;28;87940;-62
2022/07/26 04:02:58;;;;;;;14.23;9.63;;;24.30;99.90;24.40;98069.00;;;;5012832;28;88525;-62
2022/07/26 04:05:24;;;;;;;11.38;9.45;;;23.90;99.90;24.70;98063.00;;;;5019752;28;88433;-62
2022/07/26 04:07:50;;;;;;;11.15;9.77;;;24.20;99.90;23.90;98063.00;;;;5012188;28;87120;-63
2022/07/26 04:10:17;;;;;;;13.18;9.40;;;23.50;99.90;24.50;98052.00;;;;4997743;28;87963;-62
2022/07/26 04:12:43;;;;;;;10.27;9.02;;;24.00;99.90;25.00;98067.00;;;;5006136;28;88409;-61
2022/07/26 04:15:10;;;;;;;11.55;8.57;;;24.50;99.90;25.10;98075.00;;;;5012821;28;86982;-60
2022/07/26 04:17:38;;;;;;;13.65;9.20;;;24.50;99.90;25.20;98055.00;;;;5017152;28;86985;-61
2022/07/26 04:20:07;;;;;;;12.75;9.23;;;24.70;99.90;25.40;98063.00;;;;5008678;28;87828;-62
2022/07/26 04:22:34;;;;;;;13.57;9.07;;;24.80;99.90;25.60;98069.00;;;;5012785;28;87479;-61
2022/07/26 04:25:01;;;;;;;16.65;10.20;;;25.00;99.90;25.70;98058.00;;;;4993857;28;87570;-62
2022/07/26 04:27:30;;;;;;;13.18;8.75;;;25.00;99.90;26.10;98061.00;;;;5006646;28;87341;-62
2022/07/26 04:29:56;;;;;;;10.65;9.55;;;25.50;99.90;26.60;98060.00;;;;5009175;28;92221;-61
2022/07/26 04:32:22;;;;;;;11.60;9.07;;;25.90;99.90;26.80;98067.00;;;;5010807;28;88502;-61
2022/07/26 04:34:49;;;;;;;13.27;8.75;;;26.00;99.90;27.20;98071.00;;;;5012750;28;87140;-62
2022/07/26 04:37:15;;;;;;;12.93;9.52;;;26.40;99.90;26.60;98067.00;;;;5011461;28;87029;-62
2022/07/26 04:39:41;;;;;;;11.20;8.65;;;25.90;99.90;26.70;98070.00;;;;5011877;28;87784;-62
2022/07/26 04:42:07;;;;;;;11.25;8.73;;;26.00;99.90;27.10;98065.00;;;;4992200;28;87149;-62
2022/07/26 04:44:33;;;;;;;11.70;9.00;;;26.30;99.90;27.00;98059.00;;;;5012426;28;86987;-62
2022/07/26 04:46:59;;;;;;;12.13;9.05;;;26.20;99.90;27.10;98064.00;;;;5015073;28;86385;-61
2022/07/26 04:49:26;;;;;;;9.50;8.45;;;26.20;99.90;27.30;98063.00;;;;5010032;28;87630;-61
2022/07/26 04:51:52;;;;;;;11.00;8.60;;;26.40;99.90;26.80;98071.00;;;;5011770;28;88323;-61
2022/07/26 04:54:21;;;;;;;10.10;8.43;;;26.10;99.90;26.70;98060.00;;;;4954972;28;88156;-61
2022/07/26 04:56:48;;;;;;;10.85;9.38;;;26.00;99.90;26.20;98079.00;;;;4995815;28;87104;-61
2022/07/26 04:59:16;;;;;;;12.73;9.20;;;25.60;99.90;26.20;98070.00;;;;4990892;28;87515;-61
2022/07/26 05:01:43;;;;;;;12.27;8.90;;;25.50;99.90;26.10;98061.00;;;;5016830;28;87808;-61
2022/07/26 05:04:09;;;;;;;10.40;9.10;;;25.50;99.90;26.50;98079.00;;;;5009896;28;86923;-62
2022/07/26 05:06:36;;;;;;;13.20;9.63;;;25.80;99.90;26.50;98074.00;;;;5004242;28;88042;-62
2022/07/26 05:09:03;;;;;;;14.77;9.63;;;25.60;99.90;26.40;98073.00;;;;4993491;28;87722;-61
2022/07/26 05:11:29;;;;;;;10.02;8.40;;;25.80;99.90;26.90;98082.00;;;;5005337;28;88504;-61
2022/07/26 05:13:55;;;;;;;12.63;8.60;;;26.10;99.90;26.90;98065.00;;;;5015358;28;86840;-61
2022/07/26 05:16:22;;;;;;;12.05;9.43;;;26.20;99.90;27.30;98081.00;;;;5005832;28;88302;-60
2022/07/26 05:18:48;;;;;;;12.32;8.95;;;26.50;99.90;27.50;98077.00;;;;5021540;28;88777;-59
2022/07/26 05:21:14;;;;;;;13.40;9.60;;;26.70;99.90;27.80;98082.00;;;;4996901;28;89656;-59
2022/07/26 05:23:40;;;;;;;15.73;10.88;;;26.90;99.90;26.30;98075.00;;;;4991461;28;87527;-59
2022/07/26 05:26:06;;;;;;;11.65;9.55;;;25.80;99.90;26.80;98084.00;;;;5007941;28;86977;-61
2022/07/26 05:28:32;;;;;;;12.95;10.77;;;26.20;99.90;26.60;98090.00;;;;5012402;28;87549;-60
2022/07/26 05:30:58;;;;;;;12.30;8.90;;;26.00;99.90;27.20;98088.00;;;;5021899;28;88549;-61
2022/07/26 05:33:24;;;;;;;12.07;9.57;;;26.50;99.90;27.30;98089.00;;;;5011575;28;88035;-61
2022/07/26 05:35:51;;;;;;;15.02;10.40;;;26.40;99.90;27.80;98086.00;;;;4991065;28;87244;-61
2022/07/26 05:38:17;;;;;;;14.30;9.75;;;27.00;99.90;28.00;98084.00;;;;4969833;28;87425;-60
2022/07/26 05:40:43;;;;;;;12.63;10.30;;;27.10;99.90;27.90;98085.00;;;;5003621;28;87796;-60
2022/07/26 05:43:09;;;;;;;9.05;8.15;;;27.10;99.90;27.90;98089.00;;;;4994452;28;87990;-60
2022/07/26 05:45:36;;;;;;;11.02;9.40;;;27.10;99.90;28.10;98093.00;;;;5008631;28;86944;-59
2022/07/26 05:48:02;;;;;;;13.30;9.60;;;27.30;99.90;27.50;98085.00;;;;5002548;28;87573;-60
2022/07/26 05:50:28;;;;;;;13.48;10.07;;;26.90;99.90;26.40;98086.00;;;;5017489;28;86963;-60
2022/07/26 05:52:55;;;;;;;13.15;10.73;;;26.00;99.90;26.90;98082.00;;;;5008272;28;87846;-60
2022/07/26 05:55:21;;;;;;;13.23;9.68;;;26.40;99.90;27.50;98087.00;;;;5009207;28;86979;-60
2022/07/26 05:57:48;;;;;;;13.95;10.90;;;26.70;99.90;28.30;98095.00;;;;5011339;28;87757;-60
2022/07/26 06:00:14;;;;;;;13.32;10.75;;;27.30;99.90;28.50;98091.00;;;;5014950;28;87464;-61
2022/07/26 06:02:40;;;;;;;14.73;11.63;;;27.50;99.90;28.30;98088.00;;;;5010403;28;87046;-61
2022/07/26 06:05:07;;;;;;;11.25;9.93;;;27.40;99.90;28.30;98087.00;;;;5000688;28;87088;-61
2022/07/26 06:07:34;;;;;;;13.10;9.68;;;27.50;99.90;28.50;98091.00;;;;5009102;28;89631;-60
2022/07/26 06:10:00;;;;;;;13.25;9.07;;;27.60;99.90;28.00;98096.00;;;;5009577;28;88613;-61
2022/07/26 06:12:26;;;;;;;13.05;8.75;;;27.30;99.90;28.00;98088.00;;;;5019433;28;86962;-61
2022/07/26 06:14:52;;;;;;;10.40;8.77;;;27.20;99.90;28.30;98089.00;;;;5008484;28;87509;-61
2022/07/26 06:17:18;;;;;;;11.18;9.07;;;27.50;99.90;28.30;98079.00;;;;5011952;28;87889;-61
2022/07/26 06:19:45;;;;;;;11.90;8.82;;;27.50;99.90;28.30;98083.00;;;;5006679;28;87695;-60
2022/07/26 06:22:11;;;;;;;9.43;8.27;;;27.40;99.90;28.00;98083.00;;;;5020992;28;87040;-62
2022/07/26 06:24:37;;;;;;;11.30;8.27;;;27.10;99.90;27.70;98097.00;;;;5009834;28;86185;-59
2022/07/26 06:27:03;;;;;;;9.07;8.18;;;26.80;99.90;27.50;98084.00;;;;5009167;28;87716;-62
2022/07/26 06:29:30;;;;;;;9.63;8.50;;;26.80;99.90;27.20;98094.00;;;;5004991;28;88412;-60
2022/07/26 06:31:56;;;;;;;10.48;8.18;;;26.60;99.90;26.60;98095.00;;;;4992824;28;88166;-62
2022/07/26 06:34:22;;;;;;;11.15;8.40;;;26.10;99.90;26.10;98086.00;;;;4996624;28;87070;-60
2022/07/26 06:36:48;;;;;;;11.80;8.80;;;25.70;99.90;26.20;98091.00;;;;5006764;28;88662;-60
2022/07/26 06:39:14;;;;;;;13.85;10.13;;;25.90;99.90;26.00;98084.00;;;;5006771;28;87959;-61
2022/07/26 06:41:41;;;;;;;14.00;9.20;;;25.70;99.90;26.10;98084.00;;;;5011459;28;87035;-61
2022/07/26 06:44:07;;;;;;;10.45;9.35;;;25.80;99.90;25.80;98090.00;;;;5007629;28;87135;-62
2022/07/26 06:46:33;;;;;;;16.25;8.90;;;25.50;99.90;25.80;98086.00;;;;5011333;28;87644;-60
2022/07/26 06:49:00;;;;;;;11.45;8.60;;;25.60;99.90;26.00;98084.00;;;;5009072;28;88490;-60
2022/07/26 06:51:26;;;;;;;15.63;9.65;;;25.70;99.90;26.10;98080.00;;;;5011688;28;87177;-62
2022/07/26 06:53:52;;;;;;;11.25;9.85;;;25.90;99.90;25.80;98085.00;;;;4993846;28;87108;-61
2022/07/26 06:56:19;;;;;;;11.82;9.18;;;25.60;99.90;25.70;98089.00;;;;5010445;28;89622;-61
2022/07/26 06:58:46;;;;;;;10.75;9.32;;;25.50;99.90;25.80;98087.00;;;;5008684;28;88146;-61
2022/07/26 07:01:12;;;;;;;12.13;9.13;;;25.60;99.90;25.90;98089.00;;;;5011465;28;87035;-63
2022/07/26 07:03:38;;;;;;;12.23;9.52;;;25.60;99.90;25.90;98079.00;;;;4990773;28;86966;-60
2022/07/26 07:06:05;;;;;;;12.50;9.27;;;25.70;99.90;25.80;98078.00;;;;5011083;28;88800;-60
2022/07/26 07:08:31;;;;;;;11.40;10.30;;;25.50;99.90;25.50;98075.00;;;;4993824;28;88504;-59
2022/07/26 07:10:57;;;;;;;13.35;10.43;;;25.20;99.90;25.60;98073.00;;;;5010370;28;87033;-61
2022/07/26 07:13:24;;;;;;;13.00;10.30;;;25.40;99.90;25.70;98093.00;;;;5012886;28;86834;-60
2022/07/26 07:15:50;;;;;;;12.25;9.40;;;25.40;99.90;25.80;98086.00;;;;5009963;28;87581;-60
2022/07/26 07:18:16;;;;;;;10.88;9.73;;;25.50;99.90;25.80;98081.00;;;;5008857;28;87441;-60
2022/07/26 07:20:42;;;;;;;12.02;8.68;;;25.60;99.90;25.90;98080.00;;;;5003939;28;88120;-60
2022/07/26 07:23:09;;;;;;;16.50;9.63;;;25.70;99.90;26.00;98073.00;;;;4995781;28;88029;-60
2022/07/26 07:25:35;;;;;;;11.00;8.85;;;25.70;99.90;26.10;98089.00;;;;5007205;28;87922;-60
2022/07/26 07:28:01;;;;;;;14.35;9.88;;;25.80;99.90;26.00;98094.00;;;;4974138;28;87821;-61
2022/07/26 07:30:28;;;;;;;10.98;9.60;;;25.80;99.90;26.00;98093.00;;;;5011205;28;87070;-61
2022/07/26 07:32:55;;;;;;;15.57;9.43;;;25.70;99.90;26.10;98086.00;;;;4973255;28;87103;-60
2022/07/26 07:35:33;;;;;;;12.27;9.38;;;25.90;99.90;26.20;98082.00;;;;5010509;28;88927;-62
2022/07/26 07:37:59;;;;;;;11.93;9.50;;;26.00;99.90;26.20;98088.00;;;;5005761;28;88528;-61
2022/07/26 07:40:25;;;;;;;13.68;9.40;;;26.00;99.90;26.30;98082.00;;;;5007127;28;87068;-61
2022/07/26 07:42:51;;;;;;;12.00;9.45;;;26.00;99.90;26.40;98093.00;;;;5014152;28;86996;-61
2022/07/26 07:45:18;;;;;;;11.73;9.07;;;26.10;99.90;26.50;98098.00;;;;5011032;28;89935;-60
2022/07/26 07:47:44;;;;;;;13.02;8.77;;;26.20;99.90;26.30;98096.00;;;;5013962;28;90724;-61
2022/07/26 07:50:10;;;;;;;9.82;8.82;;;26.00;99.90;26.40;98091.00;;;;5004511;28;87534;-60
2022/07/26 07:52:36;;;;;;;12.23;8.60;;;26.10;99.90;26.30;98091.00;;;;5009232;28;87020;-61
2022/07/26 07:55:03;;;;;;;12.52;7.88;;;26.00;99.90;26.30;98093.00;;;;5008312;28;89806;-61
2022/07/26 07:57:29;;;;;;;9.98;8.65;;;26.00;99.90;26.20;98085.00;;;;5006552;28;88480;-60
2022/07/26 07:59:55;;;;;;;9.07;8.15;;;25.90;99.90;26.40;98094.00;;;;4992975;28;86931;-60
2022/07/26 08:02:22;;;;;;;13.18;8.10;;;26.10;99.90;26.30;98089.00;;;;4988772;28;87122;-60
2022/07/26 08:04:48;;;;;;;10.32;8.02;;;26.10;99.90;26.30;98090.00;;;;5013573;28;87579;-60
2022/07/26 08:07:14;;;;;;;12.93;8.23;;;26.00;99.90;26.30;98085.00;;;;5002855;28;88959;-60
2022/07/26 08:09:40;;;;;;;12.15;7.72;;;26.00;99.90;26.40;98095.00;;;;5008062;28;87932;-60
2022/07/26 08:12:06;;;;;;;14.02;8.60;;;26.10;99.90;26.60;98087.00;;;;5002488;28;87177;-61
2022/07/26 08:14:32;;;;;;;12.05;7.78;;;26.30;99.90;26.80;98096.00;;;;5014489;28;87696;-62
2022/07/26 08:16:58;;;;;;;9.98;7.57;;;26.50;99.90;26.80;98096.00;;;;5007217;28;87522;-62
2022/07/26 08:19:25;;;;;;;9.00;8.10;;;26.50;99.90;27.00;98098.00;;;;5019733;28;87399;-63
2022/07/26 08:21:51;;;;;;;8.88;7.07;;;26.70;99.90;27.10;98103.00;;;;5015970;28;87309;-63
2022/07/26 08:24:17;;;;;;;10.27;7.45;;;26.80;99.90;27.00;98096.00;;;;5011769;28;87723;-62
2022/07/26 08:26:43;;;;;;;11.18;7.30;;;26.80;99.90;27.00;98095.00;;;;5002784;28;88406;-62
2022/07/26 08:29:09;;;;;;;11.65;7.72;;;26.60;99.90;26.80;98099.00;;;;5012139;28;87098;-62
2022/07/26 08:31:35;;;;;;;8.40;7.40;;;26.50;99.90;27.00;98098.00;;;;5024003;28;87033;-62
2022/07/26 08:34:02;;;;;;;8.43;7.20;;;26.80;99.90;27.10;98103.00;;;;5012138;28;88245;-63
2022/07/26 08:36:28;;;;;;;11.35;7.35;;;26.80;99.90;27.20;98099.00;;;;5014790;28;88671;-63
2022/07/26 08:38:54;;;;;;;9.30;7.82;;;26.80;99.90;27.20;98106.00;;;;5020002;28;87281;-63
2022/07/26 08:41:22;;;;;;;9.73;7.55;;;26.90;99.90;27.30;98111.00;;;;5014362;28;86964;-62
2022/07/26 08:43:48;;;;;;;9.57;7.88;;;27.00;99.90;27.40;98102.00;;;;5010478;28;87838;-62
2022/07/26 08:46:14;;;;;;;10.77;7.40;;;27.10;99.90;27.50;98111.00;;;;4977349;28;88496;-62
2022/07/26 08:48:40;;;;;;;12.15;7.53;;;27.30;99.90;27.60;98117.00;;;;5008081;28;88106;-62
2022/07/26 08:51:09;;;;;;;8.27;7.13;;;27.30;99.90;27.40;98107.00;;;;5015573;28;86263;-61
2022/07/26 08:53:39;;;;;;;8.07;7.28;;;27.20;99.90;27.10;98110.00;;;;5007274;28;87061;-60
2022/07/26 08:56:05;;;;;;;11.70;8.25;;;26.80;99.90;27.00;98107.00;;;;5005832;28;87786;-61
2022/07/26 08:58:35;;;;;;;11.52;7.78;;;26.60;99.90;27.20;98120.00;;;;5008302;28;88430;-61
2022/07/26 09:01:07;;;;;;;18.27;8.35;;;26.80;99.90;27.30;98109.00;;;;5009517;28;87249;-61
2022/07/26 09:03:36;;;;;;;8.93;7.95;;;27.00;99.90;27.60;98113.00;;;;5008447;28;88572;-61
2022/07/26 09:06:19;;;;;;;13.35;7.72;;;27.30;99.90;27.90;98113.00;;;;5009819;28;88431;-60
2022/07/26 09:08:50;;;;;;;14.43;7.47;;;27.50;99.90;27.90;98118.00;;;;5008615;28;87144;-60
2022/07/26 09:11:22;;;;;;;9.68;7.60;;;27.50;99.90;28.10;98123.00;;;;5002882;28;87551;-60
2022/07/26 09:13:51;;;;;;;13.07;8.40;;;27.70;99.90;28.30;98118.00;;;;5009852;28;87751;-60
2022/07/26 09:16:17;;;;;;;11.02;7.75;;;27.90;99.90;28.20;98110.00;;;;4989784;28;88435;-60
2022/07/26 09:18:44;;;;;;;14.65;8.20;;;27.70;99.90;28.30;98118.00;;;;5002975;28;86853;-60
2022/07/26 09:21:35;;;;;;;12.57;8.40;;;27.90;99.90;28.50;98114.00;;;;5014254;28;87260;-61
2022/07/26 09:24:01;;;;;;;14.85;8.30;;;28.00;99.90;28.40;98115.00;;;;4998384;28;89617;-59
2022/07/26 09:26:28;;;;;;;13.07;8.57;;;28.10;99.90;28.40;98121.00;;;;5004520;28;89355;-62
2022/07/26 09:29:06;;;;;;;14.20;8.32;;;27.90;99.90;28.20;98122.00;;;;5003951;28;86954;-60
2022/07/26 09:31:33;;;;;;;10.43;8.38;;;27.80;99.90;28.20;98119.00;;;;5011638;28;87322;-60
2022/07/26 09:33:59;;;;;;;15.50;9.05;;;27.90;99.90;28.40;98127.00;;;;5011798;28;87559;-61
2022/07/26 09:36:26;;;;;;;13.63;8.70;;;28.00;99.90;28.40;98128.00;;;;5007773;28;88492;-62
2022/07/26 09:38:57;;;;;;;15.02;9.02;;;27.90;99.90;28.40;98120.00;;;;5004374;28;87457;-62
2022/07/26 09:41:32;;;;;;;11.63;9.50;;;28.00;99.90;28.50;98106.00;;;;4974422;28;86569;-61
2022/07/26 09:44:02;;;;;;;12.52;8.68;;;28.20;99.90;28.80;98115.00;;;;4979948;28;89351;-61
2022/07/26 09:46:30;;;;;;;13.10;9.00;;;28.40;99.90;29.00;98107.00;;;;5008522;28;87057;-61
2022/07/26 09:48:59;;;;;;;21.10;9.10;;;28.60;99.90;29.10;98117.00;;;;4989298;28;88151;-61
2022/07/26 09:51:47;;;;;;;12.82;8.13;;;28.70;99.90;29.10;98109.00;;;;5005815;28;87017;-61
2022/07/26 09:54:31;;;;;;;10.18;8.30;;;28.60;99.90;29.10;98123.00;;;;4981704;28;88052;-61
2022/07/26 09:56:58;;;;;;;9.55;7.50;;;28.70;99.90;29.20;98118.00;;;;4982121;28;87397;-61
2022/07/26 09:59:27;;;;;;;10.02;7.85;;;28.80;99.90;29.20;98109.00;;;;5016719;28;87370;-61
2022/07/26 10:01:55;;;;;;;11.73;8.02;;;28.80;99.90;29.30;98116.00;;;;5012321;28;87103;-61
2022/07/26 10:04:23;;;;;;;11.63;7.85;;;28.90;99.90;29.30;98112.00;;;;5011411;28;87751;-61
2022/07/26 10:06:50;;;;;;;8.98;7.90;;;28.90;99.90;29.40;98119.00;;;;5016748;28;87875;-61
2022/07/26 10:09:17;;;;;;;13.77;7.78;;;29.00;99.90;29.70;98110.00;;;;4956981;28;87524;-61
2022/07/26 10:12:02;;;;;;;11.15;8.63;;;29.20;99.90;29.70;98109.00;;;;4983834;28;87134;-60
2022/07/26 10:14:50;;;;;;;11.45;8.50;;;29.10;99.90;29.80;98114.00;;;;5006715;28;89651;-60
2022/07/26 10:17:28;;;;;;;14.25;8.80;;;29.20;99.90;29.20;98126.00;;;;4981820;28;88050;-61
2022/07/26 10:20:00;;;;;;;13.00;8.07;;;28.70;99.90;29.30;98131.00;;;;5015283;28;87244;-60
2022/07/26 10:22:34;;;;;;;9.38;7.72;;;28.70;99.90;29.10;98123.00;;;;5013558;28;86980;-61
2022/07/26 10:25:18;;;;;;;10.27;8.18;;;28.50;99.90;29.30;98119.00;;;;5012430;28;88153;-60
2022/07/26 10:27:46;;;;;;;10.18;8.68;;;28.80;99.90;29.20;98120.00;;;;4997840;28;87511;-60
2022/07/26 10:30:18;;;;;;;12.15;8.65;;;28.60;99.90;29.30;98109.00;;;;5009841;28;87320;-60
2022/07/26 10:32:50;;;;;;;11.95;8.45;;;28.70;99.90;29.20;98121.00;;;;5020596;28;86184;-62
2022/07/26 10:35:33;;;;;;;11.32;8.85;;;28.70;99.90;29.20;98118.00;;;;5007069;28;87107;-61
2022/07/26 10:38:05;;;;;;;11.40;8.60;;;28.60;99.90;29.10;98109.00;;;;5005186;28;88775;-60
2022/07/26 10:40:31;;;;;;;9.60;8.10;;;28.60;99.90;28.90;98111.00;;;;4993446;28;88341;-61
2022/07/26 10:43:12;;;;;;;12.57;8.50;;;28.40;99.90;28.40;98129.00;;;;4984220;28;87832;-60
2022/07/26 10:45:39;;;;;;;13.95;8.00;;;28.00;99.90;28.30;98114.00;;;;5008413;28;87965;-60
2022/07/26 10:48:17;;;;;;;9.43;8.00;;;27.90;99.90;28.30;98109.00;;;;5012299;28;87310;-60
2022/07/26 10:50:47;;;;;;;10.32;8.32;;;27.80;99.90;28.30;98117.00;;;;5008748;28;87307;-60